Time;durP1;ratioP1;P1;durP2;ratioP2;P2;SDS_P1;SDS_P2;PMS_P1;PMS_P2;Temp;Humidity;BMP_temperature;BMP_pressure;BME280_temperature;BME280_humidity;BME280_pressure;Samples;Min_cycle;Max_cycle;Signal;HPM_P1;HPM_P2
2022/07/04 00:00:56;;;;;;;0.45;0.10;;;27.20;37.70;;;;;;5083406;28;20464;-56
2022/07/04 00:03:23;;;;;;;0.98;0.10;;;27.20;37.60;;;;;;5088652;28;20040;-53
2022/07/04 00:05:50;;;;;;;0.73;0.10;;;27.20;37.80;;;;;;5076651;28;20087;-54
2022/07/04 00:08:18;;;;;;;2.25;0.10;;;27.20;37.90;;;;;;5075864;28;20040;-48
2022/07/04 00:10:45;;;;;;;0.63;0.13;;;27.20;38.00;;;;;;5073041;28;20079;-47
2022/07/04 00:13:12;;;;;;;0.50;0.10;;;27.10;38.00;;;;;;5076801;28;20135;-47
2022/07/04 00:15:41;;;;;;;0.20;0.20;;;27.10;38.00;;;;;;5081612;28;20182;-50
2022/07/04 00:18:08;;;;;;;0.98;0.38;;;27.10;38.70;;;;;;5078009;28;20041;-50
2022/07/04 00:20:35;;;;;;;2.72;0.38;;;27.10;38.10;;;;;;5077392;28;20051;-50
2022/07/04 00:23:02;;;;;;;1.05;0.10;;;27.00;38.10;;;;;;5079974;28;20403;-49
2022/07/04 00:25:29;;;;;;;0.22;0.17;;;27.00;38.00;;;;;;5077401;28;20079;-47
2022/07/04 00:27:56;;;;;;;0.38;0.10;;;27.00;38.10;;;;;;5074945;28;20051;-52
2022/07/04 00:30:24;;;;;;;0.80;0.00;;;27.00;38.10;;;;;;5085392;28;20127;-50
2022/07/04 00:32:53;;;;;;;1.27;0.17;;;27.00;38.10;;;;;;5082797;28;20052;-49
2022/07/04 00:35:20;;;;;;;1.00;0.57;;;27.00;38.10;;;;;;5073660;28;20036;-47
2022/07/04 00:37:47;;;;;;;0.63;0.10;;;26.90;38.10;;;;;;5073572;28;20501;-47
2022/07/04 00:40:14;;;;;;;0.90;0.10;;;26.90;38.10;;;;;;5076420;28;20076;-50
2022/07/04 00:42:41;;;;;;;0.20;0.00;;;26.90;38.20;;;;;;5086482;28;20125;-47
2022/07/04 00:45:09;;;;;;;0.25;0.10;;;26.90;38.20;;;;;;5077750;28;20394;-48
2022/07/04 00:47:36;;;;;;;0.03;0.00;;;26.90;38.20;;;;;;5076706;28;20042;-55
2022/07/04 00:50:05;;;;;;;0.52;0.05;;;26.90;38.30;;;;;;5081555;28;20043;-51
2022/07/04 00:52:32;;;;;;;2.67;0.45;;;26.90;38.30;;;;;;5079606;28;20052;-54
2022/07/04 00:55:00;;;;;;;0.82;0.20;;;26.80;38.30;;;;;;5077496;28;20051;-47
2022/07/04 00:57:28;;;;;;;2.20;0.10;;;26.80;38.40;;;;;;5076638;28;20050;-49
2022/07/04 00:59:55;;;;;;;0.00;0.00;;;26.80;38.40;;;;;;5074925;28;20040;-48
2022/07/04 01:02:22;;;;;;;0.28;0.00;;;26.80;38.40;;;;;;5074073;28;20040;-49
2022/07/04 01:04:49;;;;;;;1.65;0.10;;;26.80;38.60;;;;;;5072601;28;20382;-50
2022/07/04 01:07:17;;;;;;;1.48;0.22;;;26.80;38.60;;;;;;5078386;28;20648;-49
2022/07/04 01:09:45;;;;;;;0.68;0.10;;;26.80;38.60;;;;;;5075928;28;20055;-48
2022/07/04 01:12:12;;;;;;;2.70;0.30;;;26.70;38.60;;;;;;5073269;28;20516;-49
2022/07/04 01:14:39;;;;;;;0.77;0.10;;;26.70;38.60;;;;;;5075300;28;20043;-50
2022/07/04 01:17:07;;;;;;;0.10;0.10;;;26.70;38.70;;;;;;5073516;28;20047;-52
2022/07/04 01:19:34;;;;;;;1.05;0.00;;;26.70;38.80;;;;;;5080838;28;20094;-52
2022/07/04 01:22:07;;;;;;;1.85;0.10;;;26.70;38.70;;;;;;5085469;28;20044;-49
2022/07/04 01:24:34;;;;;;;0.50;0.00;;;26.70;38.70;;;;;;5085294;28;20048;-49
2022/07/04 01:27:01;;;;;;;1.25;0.10;;;26.60;38.80;;;;;;5081832;28;20044;-50
2022/07/04 01:29:29;;;;;;;2.08;0.10;;;26.70;38.80;;;;;;5082202;28;20046;-49
2022/07/04 01:31:56;;;;;;;0.52;0.10;;;26.60;38.80;;;;;;5081489;28;20504;-48
2022/07/04 01:34:23;;;;;;;0.65;0.00;;;26.60;38.80;;;;;;5084279;28;20507;-48
2022/07/04 01:36:50;;;;;;;0.95;0.10;;;26.60;38.80;;;;;;5084514;28;20036;-49
2022/07/04 01:39:18;;;;;;;2.30;0.10;;;26.60;38.80;;;;;;5083138;28;20051;-49
2022/07/04 01:41:45;;;;;;;0.10;0.00;;;26.60;38.90;;;;;;5081827;28;20058;-48
2022/07/04 01:44:12;;;;;;;2.17;0.50;;;26.60;38.90;;;;;;5079623;28;20077;-49
2022/07/04 01:46:39;;;;;;;0.10;0.10;;;26.50;38.80;;;;;;5087091;28;20040;-50
2022/07/04 01:49:06;;;;;;;0.10;0.00;;;26.50;38.90;;;;;;5073021;28;20036;-52
2022/07/04 01:51:33;;;;;;;1.30;0.08;;;26.50;38.80;;;;;;5082863;28;20464;-52
2022/07/04 01:54:01;;;;;;;0.15;0.00;;;26.50;38.90;;;;;;5078346;28;20105;-51
2022/07/04 01:56:29;;;;;;;1.95;0.10;;;26.50;38.90;;;;;;5078074;28;20037;-51
2022/07/04 01:58:59;;;;;;;0.80;0.10;;;26.50;39.00;;;;;;5073435;28;20123;-49
2022/07/04 02:01:31;;;;;;;1.80;0.00;;;26.40;39.00;;;;;;5071908;28;20040;-48
2022/07/04 02:03:59;;;;;;;0.00;0.00;;;26.40;39.10;;;;;;5078574;28;20051;-52
2022/07/04 02:06:26;;;;;;;0.47;0.20;;;26.40;39.10;;;;;;5075687;28;20032;-50
2022/07/04 02:14:24;;;;;;;1.52;0.00;;;26.40;39.80;;;;;;5075071;28;20408;-55
2022/07/04 02:16:51;;;;;;;0.43;0.00;;;26.30;39.10;;;;;;5072867;28;20476;-52
2022/07/04 02:19:18;;;;;;;0.00;0.00;;;26.30;39.10;;;;;;5072203;28;20845;-51
2022/07/04 02:21:45;;;;;;;1.23;0.30;;;26.30;39.10;;;;;;5081138;28;20040;-51
2022/07/04 02:24:12;;;;;;;0.63;0.00;;;26.30;39.00;;;;;;5079637;28;20119;-53
2022/07/04 02:26:41;;;;;;;2.65;0.03;;;26.30;39.10;;;;;;5071995;28;20032;-50
2022/07/04 02:29:08;;;;;;;0.20;0.20;;;26.30;39.10;;;;;;5071100;28;20050;-49
2022/07/04 02:31:35;;;;;;;1.75;0.30;;;26.30;39.10;;;;;;5071118;28;20540;-55
2022/07/04 02:34:02;;;;;;;3.35;1.05;;;26.30;39.10;;;;;;5081783;28;20473;-49
2022/07/04 02:36:29;;;;;;;1.60;0.10;;;26.20;39.00;;;;;;5082440;28;20043;-48
2022/07/04 02:38:56;;;;;;;1.30;0.05;;;26.20;39.10;;;;;;5076763;28;20036;-48
2022/07/04 02:41:23;;;;;;;0.17;0.00;;;26.20;39.20;;;;;;5076723;28;20048;-52
2022/07/04 02:43:52;;;;;;;0.28;0.00;;;26.20;39.20;;;;;;5068701;28;20060;-52
2022/07/04 02:46:19;;;;;;;0.10;0.00;;;26.20;39.20;;;;;;5071637;28;20507;-49
2022/07/04 02:48:46;;;;;;;0.95;0.30;;;26.20;39.30;;;;;;5075757;28;20402;-49
2022/07/04 02:51:13;;;;;;;0.15;0.00;;;26.20;39.30;;;;;;5079691;28;20036;-50
2022/07/04 02:53:40;;;;;;;1.98;0.20;;;26.20;39.30;;;;;;5080098;28;20046;-50
2022/07/04 02:56:07;;;;;;;0.45;0.20;;;26.20;39.40;;;;;;5077945;28;20072;-49
2022/07/04 02:58:35;;;;;;;1.00;0.10;;;26.10;39.40;;;;;;5070259;28;20117;-49
2022/07/04 03:01:03;;;;;;;1.55;0.10;;;26.10;39.40;;;;;;5084854;28;20036;-51
2022/07/04 03:03:30;;;;;;;0.10;0.10;;;26.10;39.50;;;;;;5078124;28;20078;-49
2022/07/04 03:05:57;;;;;;;1.35;0.10;;;26.10;39.50;;;;;;5085687;28;20047;-50
2022/07/04 03:08:24;;;;;;;0.10;0.00;;;26.10;39.50;;;;;;5074781;28;20051;-51
2022/07/04 03:10:52;;;;;;;0.65;0.10;;;26.10;39.60;;;;;;5074255;28;20501;-54
2022/07/04 03:13:19;;;;;;;0.55;0.20;;;26.10;39.60;;;;;;5076210;28;20466;-51
2022/07/04 03:15:46;;;;;;;0.65;0.30;;;26.00;39.50;;;;;;5081177;28;20043;-48
2022/07/04 03:18:15;;;;;;;0.52;0.00;;;26.00;39.50;;;;;;5076243;28;20167;-49
2022/07/04 03:20:42;;;;;;;0.10;0.00;;;26.00;39.50;;;;;;5078877;28;20230;-50
2022/07/04 03:23:09;;;;;;;0.10;0.00;;;26.00;39.50;;;;;;5085732;28;20040;-51
2022/07/04 03:25:36;;;;;;;2.00;0.10;;;26.00;39.50;;;;;;5077085;28;20036;-48
2022/07/04 03:28:04;;;;;;;0.10;0.00;;;26.00;39.50;;;;;;5076382;28;20051;-48
2022/07/04 03:30:31;;;;;;;4.50;0.10;;;26.00;39.50;;;;;;5074285;28;20056;-51
2022/07/04 03:32:58;;;;;;;4.45;0.10;;;26.00;39.60;;;;;;5080656;28;20043;-51
2022/07/04 03:35:27;;;;;;;2.47;0.00;;;25.90;39.60;;;;;;5076361;28;20077;-50
2022/07/04 03:37:54;;;;;;;0.70;0.22;;;26.00;39.60;;;;;;5072932;28;20048;-50
2022/07/04 03:40:22;;;;;;;1.88;0.13;;;25.90;39.60;;;;;;5076526;28;20071;-50
2022/07/04 03:42:49;;;;;;;0.08;0.00;;;25.90;39.60;;;;;;5089125;28;20044;-48
2022/07/04 03:45:16;;;;;;;0.50;0.05;;;25.90;39.60;;;;;;5077981;28;20127;-48
2022/07/04 03:47:43;;;;;;;0.10;0.08;;;25.90;39.70;;;;;;5078868;28;20040;-48
2022/07/04 03:50:10;;;;;;;1.08;0.20;;;25.90;39.70;;;;;;5074025;28;20489;-60
2022/07/04 03:52:39;;;;;;;0.65;0.03;;;25.90;39.70;;;;;;5081161;28;20032;-49
2022/07/04 03:55:07;;;;;;;0.20;0.10;;;25.90;39.70;;;;;;5073480;28;20052;-48
2022/07/04 03:57:34;;;;;;;0.10;0.10;;;25.80;39.70;;;;;;5065261;28;20052;-48
2022/07/04 04:00:01;;;;;;;1.23;0.10;;;25.80;39.70;;;;;;5075243;28;20033;-48
2022/07/04 04:02:39;;;;;;;1.30;0.20;;;25.80;39.70;;;;;;5076869;28;20121;-48
2022/07/04 04:07:55;;;;;;;0.10;0.05;;;25.80;39.80;;;;;;5072218;28;20043;-51
2022/07/04 04:10:24;;;;;;;0.63;0.10;;;25.70;39.80;;;;;;5070817;28;20531;-50
2022/07/04 04:12:51;;;;;;;1.33;0.00;;;25.70;39.80;;;;;;5075072;28;20037;-49
2022/07/04 04:15:18;;;;;;;0.15;0.00;;;25.70;39.80;;;;;;5084536;28;20040;-52
2022/07/04 04:17:46;;;;;;;1.08;0.10;;;25.70;39.80;;;;;;5081204;28;20036;-50
2022/07/04 04:20:13;;;;;;;1.65;0.13;;;25.70;39.90;;;;;;5073754;28;20047;-49
2022/07/04 04:22:40;;;;;;;0.43;0.00;;;25.70;39.90;;;;;;5085272;28;20058;-50
2022/07/04 04:25:09;;;;;;;2.88;0.90;;;25.70;40.00;;;;;;5080160;28;20144;-55
2022/07/04 04:27:36;;;;;;;1.55;0.17;;;25.70;40.00;;;;;;5074891;28;20044;-53
2022/07/04 04:30:04;;;;;;;2.05;0.10;;;25.60;39.90;;;;;;5075948;28;20051;-52
2022/07/04 04:32:31;;;;;;;0.10;0.00;;;25.70;40.00;;;;;;5075696;28;20035;-49
2022/07/04 04:34:59;;;;;;;0.88;0.30;;;25.70;40.00;;;;;;5075408;28;20044;-52
2022/07/04 04:37:26;;;;;;;0.85;0.10;;;25.60;39.90;;;;;;5071244;28;20044;-50
2022/07/04 04:39:53;;;;;;;2.35;0.10;;;25.60;39.90;;;;;;5079095;28;20123;-50
2022/07/04 04:42:22;;;;;;;1.60;0.55;;;25.60;40.00;;;;;;5074115;28;20040;-48
2022/07/04 04:44:49;;;;;;;0.82;0.10;;;25.60;40.00;;;;;;5071434;28;20067;-50
2022/07/04 04:47:17;;;;;;;3.53;0.10;;;25.60;40.00;;;;;;5056296;28;20063;-48
2022/07/04 04:49:44;;;;;;;0.63;0.10;;;25.60;40.00;;;;;;5073089;28;20045;-51
2022/07/04 04:52:12;;;;;;;1.38;0.10;;;25.60;40.00;;;;;;5083144;28;20455;-46
2022/07/04 04:54:39;;;;;;;0.08;0.00;;;25.60;40.00;;;;;;5078294;28;20048;-50
2022/07/04 04:57:07;;;;;;;1.00;0.10;;;25.60;40.10;;;;;;5077151;28;20047;-52
2022/07/04 04:59:35;;;;;;;0.75;0.10;;;25.60;40.10;;;;;;5072941;28;20076;-50
2022/07/04 05:02:03;;;;;;;0.13;0.13;;;25.60;40.10;;;;;;5074559;28;20127;-51
2022/07/04 05:04:31;;;;;;;1.17;0.00;;;25.60;40.10;;;;;;5079009;28;20044;-56
2022/07/04 05:06:58;;;;;;;0.50;0.05;;;25.60;40.10;;;;;;5079987;28;20708;-53
2022/07/04 05:09:26;;;;;;;0.75;0.10;;;25.60;40.10;;;;;;5077195;28;20114;-53
2022/07/04 05:11:54;;;;;;;0.10;0.10;;;25.60;40.20;;;;;;5083256;28;20048;-54
2022/07/04 05:14:21;;;;;;;2.00;0.30;;;25.50;40.10;;;;;;5074070;28;20101;-53
2022/07/04 05:16:49;;;;;;;1.00;0.20;;;25.60;40.20;;;;;;5067090;28;20497;-51
2022/07/04 05:19:17;;;;;;;1.10;0.10;;;25.60;40.20;;;;;;5071028;28;20048;-53
2022/07/04 05:21:44;;;;;;;0.60;0.22;;;25.50;40.20;;;;;;5077079;28;20048;-54
2022/07/04 05:24:12;;;;;;;1.60;0.10;;;25.60;40.30;;;;;;5078625;28;20067;-52
2022/07/04 05:26:39;;;;;;;0.10;0.10;;;25.60;40.30;;;;;;5071960;28;20056;-54
2022/07/04 05:29:07;;;;;;;0.10;0.10;;;25.60;40.30;;;;;;5075987;28;20115;-53
2022/07/04 05:31:34;;;;;;;0.17;0.10;;;25.60;40.30;;;;;;5071783;28;20626;-51
2022/07/04 05:34:02;;;;;;;1.55;0.20;;;25.50;40.30;;;;;;5079906;28;20052;-48
2022/07/04 05:36:30;;;;;;;1.73;0.10;;;25.60;40.40;;;;;;5073922;28;20039;-47
2022/07/04 05:38:58;;;;;;;1.95;0.10;;;25.60;40.40;;;;;;5074640;28;20121;-49
2022/07/04 05:41:25;;;;;;;3.10;0.32;;;25.60;40.40;;;;;;5073921;28;20119;-48
2022/07/04 05:43:52;;;;;;;1.55;0.52;;;25.60;40.40;;;;;;5069742;28;20091;-47
2022/07/04 05:46:19;;;;;;;0.43;0.10;;;25.60;40.40;;;;;;5074890;28;20068;-48
2022/07/04 05:48:47;;;;;;;0.82;0.10;;;25.60;40.40;;;;;;5055953;28;20044;-49
2022/07/04 05:51:15;;;;;;;1.35;0.00;;;25.60;40.40;;;;;;5077027;28;20623;-47
2022/07/04 05:53:42;;;;;;;0.90;0.10;;;25.60;40.40;;;;;;5060283;28;20075;-50
2022/07/04 05:56:10;;;;;;;0.20;0.05;;;25.60;40.40;;;;;;5074564;28;20032;-49
2022/07/04 05:58:38;;;;;;;0.88;0.10;;;25.60;40.40;;;;;;5072215;28;20589;-50
2022/07/04 06:01:05;;;;;;;0.90;0.10;;;25.60;40.40;;;;;;5081775;28;20064;-49
2022/07/04 06:03:32;;;;;;;0.30;0.10;;;25.60;40.90;;;;;;5077109;28;20048;-49
2022/07/04 06:05:59;;;;;;;1.63;0.10;;;25.60;40.50;;;;;;5076221;28;20409;-50
2022/07/04 06:08:28;;;;;;;1.75;0.65;;;25.60;40.50;;;;;;5071313;28;20119;-50
2022/07/04 06:10:56;;;;;;;1.60;0.10;;;25.60;40.50;;;;;;5074971;28;20120;-49
2022/07/04 06:13:23;;;;;;;0.57;0.10;;;25.70;40.70;;;;;;5072422;28;20048;-50
2022/07/04 06:15:51;;;;;;;0.68;0.05;;;25.70;40.70;;;;;;5085102;28;20043;-49
2022/07/04 06:18:18;;;;;;;2.03;0.10;;;25.70;41.30;;;;;;5072192;28;20059;-52
2022/07/04 06:20:45;;;;;;;1.00;0.10;;;25.70;40.80;;;;;;5072163;28;20048;-56
2022/07/04 06:23:13;;;;;;;1.75;0.10;;;25.80;40.80;;;;;;5078732;28;20098;-48
2022/07/04 06:25:41;;;;;;;0.10;0.10;;;25.80;40.70;;;;;;5072028;28;20041;-52
2022/07/04 06:28:08;;;;;;;4.88;0.82;;;25.80;40.70;;;;;;5077075;28;20068;-51
2022/07/04 06:30:35;;;;;;;0.63;0.10;;;25.80;40.70;;;;;;5077139;28;20033;-52
2022/07/04 06:33:03;;;;;;;0.45;0.00;;;25.80;40.70;;;;;;5081846;28;20512;-53
2022/07/04 06:35:46;;;;;;;0.32;0.10;;;25.90;40.70;;;;;;5083041;28;20168;-48
2022/07/04 06:38:14;;;;;;;0.80;0.10;;;25.90;40.70;;;;;;5072981;28;20063;-56
2022/07/04 06:40:43;;;;;;;1.30;0.10;;;25.90;40.60;;;;;;5061102;28;20044;-52
2022/07/04 06:43:11;;;;;;;0.10;0.10;;;25.90;40.50;;;;;;5077546;28;20393;-49
2022/07/04 06:45:38;;;;;;;1.45;0.65;;;25.90;40.50;;;;;;5075407;28;20161;-51
2022/07/04 06:48:07;;;;;;;0.50;0.10;;;25.90;40.50;;;;;;5075437;28;20393;-48
2022/07/04 06:50:35;;;;;;;1.85;0.10;;;25.90;40.40;;;;;;5070808;28;20040;-48
2022/07/04 06:53:04;;;;;;;0.52;0.03;;;26.00;40.40;;;;;;5072252;28;20066;-49
2022/07/04 06:55:32;;;;;;;0.40;0.10;;;26.00;41.00;;;;;;5076585;28;20035;-50
2022/07/04 06:58:01;;;;;;;1.50;0.10;;;26.00;40.30;;;;;;5077561;28;20045;-49
2022/07/04 07:00:30;;;;;;;1.73;0.38;;;26.00;40.30;;;;;;5071523;28;20527;-49
2022/07/04 07:02:58;;;;;;;0.38;0.10;;;26.00;40.30;;;;;;5077300;28;20439;-49
2022/07/04 07:05:25;;;;;;;1.45;0.52;;;26.10;40.20;;;;;;5075485;28;20138;-51
2022/07/04 07:07:52;;;;;;;1.17;0.20;;;26.00;40.10;;;;;;5071741;28;20048;-54
2022/07/04 07:10:19;;;;;;;0.98;0.10;;;26.00;40.00;;;;;;5069086;28;20045;-53
2022/07/04 07:12:47;;;;;;;0.32;0.20;;;26.10;40.10;;;;;;5079047;28;20048;-51
2022/07/04 07:15:16;;;;;;;1.15;0.20;;;26.10;40.00;;;;;;5076060;28;20139;-50
2022/07/04 07:17:44;;;;;;;3.20;0.20;;;26.10;40.00;;;;;;5070964;28;20524;-50
2022/07/04 07:20:13;;;;;;;0.63;0.10;;;26.10;40.00;;;;;;5070513;28;20040;-49
2022/07/04 07:22:41;;;;;;;0.30;0.10;;;26.10;39.90;;;;;;5069623;28;20116;-51
2022/07/04 07:25:09;;;;;;;0.70;0.50;;;26.10;39.90;;;;;;5077340;28;20582;-50
2022/07/04 07:27:37;;;;;;;1.08;0.10;;;26.10;39.90;;;;;;5076558;28;20033;-50
2022/07/04 07:30:05;;;;;;;0.50;0.10;;;26.10;39.80;;;;;;5080162;28;20055;-52
2022/07/04 07:32:34;;;;;;;2.47;0.00;;;26.10;39.80;;;;;;5077998;28;20056;-52
2022/07/04 07:35:01;;;;;;;3.53;0.30;;;26.20;39.90;;;;;;5082050;28;20036;-63
2022/07/04 07:37:28;;;;;;;10.82;0.32;;;26.20;40.00;;;;;;5074658;28;20830;-61
2022/07/04 07:39:55;;;;;;;0.57;0.10;;;26.20;40.00;;;;;;5083755;28;20037;-63
2022/07/04 07:42:24;;;;;;;3.60;0.17;;;26.20;40.20;;;;;;5075552;28;20577;-69
2022/07/04 07:44:51;;;;;;;1.45;0.17;;;26.20;40.20;;;;;;5074856;28;20052;-62
2022/07/04 07:47:19;;;;;;;0.25;0.20;;;26.30;40.00;;;;;;5073356;28;20110;-62
2022/07/04 07:49:47;;;;;;;0.52;0.10;;;26.50;39.90;;;;;;5082555;28;20139;-62
2022/07/04 07:52:15;;;;;;;6.15;0.20;;;26.70;39.70;;;;;;5083027;28;20497;-57
2022/07/04 07:54:42;;;;;;;1.67;0.00;;;26.90;39.40;;;;;;5083830;28;20051;-59
2022/07/04 07:57:10;;;;;;;1.48;0.00;;;27.00;39.00;;;;;;5084924;28;20561;-64
2022/07/04 07:59:37;;;;;;;2.05;0.10;;;27.20;38.80;;;;;;5081117;28;20140;-61
2022/07/04 08:02:04;;;;;;;0.45;0.00;;;27.40;38.40;;;;;;5084770;28;20500;-49
2022/07/04 08:04:37;;;;;;;3.22;0.52;;;27.60;38.10;;;;;;5080725;28;20052;-61
2022/07/04 08:07:07;;;;;;;6.10;0.40;;;27.60;38.00;;;;;;5079501;28;20040;-63
2022/07/04 08:09:35;;;;;;;0.75;0.10;;;27.80;37.90;;;;;;5088113;28;20039;-65
2022/07/04 08:12:04;;;;;;;9.50;0.75;;;27.90;37.70;;;;;;5084766;28;20122;-65
2022/07/04 08:14:32;;;;;;;4.60;0.10;;;27.90;37.60;;;;;;5084861;28;20048;-64
2022/07/04 08:17:00;;;;;;;1.88;0.38;;;28.00;37.50;;;;;;5062731;28;20036;-68
2022/07/04 08:19:28;;;;;;;0.25;0.25;;;28.10;37.40;;;;;;5061891;28;20041;-70
2022/07/04 08:21:56;;;;;;;2.15;0.22;;;28.20;37.30;;;;;;5084189;28;20071;-68
2022/07/04 08:24:24;;;;;;;2.20;0.65;;;28.30;37.20;;;;;;5081212;28;20102;-56
2022/07/04 08:26:52;;;;;;;2.47;0.10;;;28.30;37.10;;;;;;5080050;28;20047;-51
2022/07/04 08:29:20;;;;;;;11.15;0.20;;;28.40;37.00;;;;;;5078550;28;20045;-50
2022/07/04 08:31:48;;;;;;;1.15;0.45;;;28.40;36.90;;;;;;5077327;28;20460;-55
2022/07/04 08:34:16;;;;;;;0.63;0.10;;;28.50;36.70;;;;;;5086429;28;20047;-51
2022/07/04 08:36:43;;;;;;;0.55;0.10;;;28.60;36.70;;;;;;5083433;28;20043;-58
2022/07/04 08:39:11;;;;;;;0.65;0.10;;;28.60;36.60;;;;;;5080179;28;20044;-57
2022/07/04 08:41:42;;;;;;;2.40;0.20;;;28.70;36.30;;;;;;5080555;28;20097;-64
2022/07/04 08:44:11;;;;;;;7.82;4.30;;;28.70;36.10;;;;;;5084945;28;20043;-63
2022/07/04 08:46:40;;;;;;;3.92;1.40;;;28.80;36.00;;;;;;5077067;28;20043;-69
2022/07/04 08:49:15;;;;;;;2.85;0.93;;;28.90;35.90;;;;;;5082511;28;20398;-67
2022/07/04 08:51:48;;;;;;;6.05;0.80;;;29.00;35.70;;;;;;5086695;28;20036;-59
2022/07/04 08:59:50;;;;;;;3.03;1.25;;;29.00;35.20;;;;;;5081134;28;20418;-62
2022/07/04 09:02:19;;;;;;;3.45;0.52;;;29.00;35.10;;;;;;5077643;28;20055;-63
2022/07/04 09:04:47;;;;;;;3.92;0.30;;;29.10;35.30;;;;;;5075035;28;20405;-51
2022/07/04 09:07:15;;;;;;;3.70;0.20;;;29.10;35.10;;;;;;5074265;28;20047;-58
2022/07/04 09:09:43;;;;;;;1.00;0.25;;;29.20;35.00;;;;;;5080281;28;20043;-62
2022/07/04 09:12:12;;;;;;;4.57;0.32;;;29.20;34.70;;;;;;5079114;28;20052;-59
2022/07/04 09:14:39;;;;;;;3.70;0.85;;;29.20;34.50;;;;;;5083930;28;20062;-66
2022/07/04 09:17:07;;;;;;;0.63;0.10;;;29.30;34.40;;;;;;5076782;28;20047;-72
2022/07/04 09:19:35;;;;;;;1.02;0.10;;;29.30;34.20;;;;;;5081614;28;20040;-62
2022/07/04 09:22:05;;;;;;;0.25;0.10;;;29.30;34.00;;;;;;5070036;28;20080;-61
2022/07/04 09:24:45;;;;;;;0.20;0.10;;;29.30;33.80;;;;;;5081711;28;20043;-64
2022/07/04 09:27:13;;;;;;;1.10;0.10;;;29.30;33.30;;;;;;5076379;28;20051;-67
2022/07/04 09:29:53;;;;;;;1.27;0.40;;;29.30;33.40;;;;;;5077440;28;20036;-64
2022/07/04 09:32:26;;;;;;;2.30;0.20;;;29.30;33.70;;;;;;5080607;28;20046;-65
2022/07/04 09:34:56;;;;;;;5.53;0.15;;;29.30;34.00;;;;;;5061857;28;20040;-66
2022/07/04 09:37:23;;;;;;;2.53;0.10;;;29.30;34.00;;;;;;5072578;28;20052;-66
2022/07/04 09:39:50;;;;;;;0.30;0.10;;;29.30;34.00;;;;;;5078996;28;20078;-66
2022/07/04 09:42:20;;;;;;;3.90;0.65;;;29.30;33.90;;;;;;5078306;28;20040;-66
2022/07/04 09:44:49;;;;;;;0.60;0.10;;;29.30;33.90;;;;;;5080163;28;20153;-65
2022/07/04 09:47:24;;;;;;;2.92;0.10;;;29.30;33.80;;;;;;5074771;28;20033;-65
2022/07/04 09:50:01;;;;;;;2.85;0.45;;;29.30;33.80;;;;;;5075700;28;20058;-65
2022/07/04 09:52:29;;;;;;;0.40;0.03;;;29.30;33.70;;;;;;5080343;28;20162;-65
2022/07/04 09:54:59;;;;;;;1.85;0.30;;;29.30;33.70;;;;;;5082675;28;20051;-65
2022/07/04 09:57:27;;;;;;;0.43;0.10;;;29.30;33.60;;;;;;5079202;28;20044;-65
2022/07/04 09:59:54;;;;;;;1.70;0.20;;;29.30;33.50;;;;;;5078531;28;20172;-64
2022/07/04 10:02:22;;;;;;;0.40;0.10;;;29.30;33.40;;;;;;5079883;28;20051;-66
2022/07/04 10:04:51;;;;;;;0.65;0.43;;;29.30;33.90;;;;;;5079073;28;20532;-71
2022/07/04 10:07:31;;;;;;;0.95;0.10;;;29.30;34.10;;;;;;5077422;28;20556;-65
2022/07/04 10:09:59;;;;;;;0.20;0.10;;;29.40;34.30;;;;;;5080736;28;20036;-63
2022/07/04 10:12:29;;;;;;;2.50;0.10;;;29.30;34.80;;;;;;5079542;28;20042;-60
2022/07/04 10:14:57;;;;;;;0.52;0.10;;;29.30;34.20;;;;;;5084931;28;20044;-60
2022/07/04 10:17:25;;;;;;;0.30;0.10;;;29.30;34.30;;;;;;5076148;28;20062;-62
2022/07/04 10:19:52;;;;;;;0.10;0.00;;;29.30;34.20;;;;;;5076665;28;20044;-60
2022/07/04 10:22:23;;;;;;;0.90;0.08;;;29.40;34.00;;;;;;5083601;28;20040;-61
2022/07/04 10:24:52;;;;;;;0.00;0.00;;;29.40;33.90;;;;;;5079980;28;20052;-67
2022/07/04 10:27:19;;;;;;;0.20;0.00;;;29.40;34.40;;;;;;5075073;28;20116;-61
2022/07/04 10:29:48;;;;;;;0.52;0.00;;;29.40;33.70;;;;;;5077355;28;20044;-61
2022/07/04 10:32:17;;;;;;;1.50;0.10;;;29.40;33.60;;;;;;5057006;28;20068;-62
2022/07/04 10:34:45;;;;;;;1.70;0.08;;;29.40;33.40;;;;;;5080183;28;20604;-61
2022/07/04 10:37:13;;;;;;;0.10;0.10;;;29.40;33.20;;;;;;5081601;28;20128;-62
2022/07/04 10:39:41;;;;;;;2.42;0.10;;;29.40;33.20;;;;;;5079135;28;20052;-58
2022/07/04 10:42:09;;;;;;;0.32;0.00;;;29.50;33.30;;;;;;5079489;28;20071;-66
2022/07/04 10:44:37;;;;;;;1.38;0.00;;;29.50;33.40;;;;;;5079503;28;20039;-63
2022/07/04 10:47:06;;;;;;;0.75;0.10;;;29.50;33.10;;;;;;5074626;28;20045;-57
2022/07/04 10:49:36;;;;;;;0.10;0.00;;;29.50;32.90;;;;;;5077283;28;20044;-58
2022/07/04 10:52:11;;;;;;;1.65;0.05;;;29.50;32.20;;;;;;5079723;28;20044;-55
2022/07/04 10:54:40;;;;;;;2.05;0.00;;;29.50;32.20;;;;;;5074171;28;20139;-54
2022/07/04 10:57:14;;;;;;;4.57;0.17;;;29.50;31.70;;;;;;5069973;28;20736;-58
2022/07/04 10:59:42;;;;;;;0.10;0.00;;;29.60;31.90;;;;;;5075711;28;20044;-58
2022/07/04 11:02:30;;;;;;;0.52;0.10;;;29.60;31.60;;;;;;5079157;28;20058;-57
2022/07/04 11:05:05;;;;;;;2.10;0.00;;;29.60;31.50;;;;;;5077287;28;20418;-56
2022/07/04 11:07:56;;;;;;;3.30;0.20;;;29.60;31.40;;;;;;5078361;28;20048;-54
2022/07/04 11:10:25;;;;;;;0.13;0.00;;;29.60;31.30;;;;;;5081044;28;20048;-55
2022/07/04 11:13:09;;;;;;;1.25;0.03;;;29.60;31.40;;;;;;5083034;28;20393;-55
2022/07/04 11:15:59;;;;;;;0.40;0.10;;;29.70;31.50;;;;;;5077448;28;21688;-53
2022/07/04 11:18:29;;;;;;;0.52;0.10;;;29.70;31.40;;;;;;5064595;28;20044;-55
2022/07/04 11:20:57;;;;;;;0.22;0.20;;;29.70;31.30;;;;;;5079511;28;20036;-57
2022/07/04 11:23:24;;;;;;;1.88;0.00;;;29.70;31.30;;;;;;5076303;28;20085;-56
2022/07/04 11:25:54;;;;;;;0.73;0.10;;;29.70;31.10;;;;;;5078746;28;20579;-53
2022/07/04 11:28:23;;;;;;;0.10;0.08;;;29.80;31.30;;;;;;5085932;28;20049;-53
2022/07/04 11:30:51;;;;;;;0.60;0.17;;;29.80;31.20;;;;;;5081351;28;20051;-53
2022/07/04 11:33:20;;;;;;;3.40;0.10;;;29.80;31.40;;;;;;5084025;28;20044;-56
2022/07/04 11:36:07;;;;;;;0.70;0.10;;;29.80;31.60;;;;;;5075434;28;20052;-54
2022/07/04 11:38:49;;;;;;;0.30;0.13;;;29.90;31.90;;;;;;5079451;28;20040;-54
2022/07/04 11:47:03;;;;;;;2.15;0.10;;;29.90;32.90;;;;;;5075552;28;20048;-52
2022/07/04 11:49:31;;;;;;;0.10;0.00;;;30.00;33.80;;;;;;5082596;28;20047;-55
2022/07/04 11:51:59;;;;;;;0.40;0.00;;;30.00;33.90;;;;;;5085417;28;20062;-56
2022/07/04 11:54:26;;;;;;;1.55;0.10;;;30.00;34.10;;;;;;5078950;28;20070;-56
2022/07/04 11:57:08;;;;;;;0.47;0.10;;;30.00;34.10;;;;;;5081819;28;20153;-53
2022/07/04 11:59:35;;;;;;;0.10;0.03;;;30.10;33.50;;;;;;5079403;28;20570;-54
2022/07/04 12:02:11;;;;;;;1.20;0.10;;;30.10;33.80;;;;;;5061398;28;20028;-53
2022/07/04 12:04:41;;;;;;;0.75;0.10;;;30.20;33.90;;;;;;5079955;28;20075;-50
2022/07/04 12:07:14;;;;;;;4.68;0.00;;;30.20;34.20;;;;;;5077911;28;20165;-54
2022/07/04 12:09:42;;;;;;;2.55;0.10;;;30.20;34.10;;;;;;5084768;28;21028;-56
2022/07/04 12:12:10;;;;;;;1.33;0.10;;;30.20;34.40;;;;;;5079500;28;20044;-57
2022/07/04 12:14:38;;;;;;;3.33;0.10;;;30.30;34.30;;;;;;5085664;28;20068;-53
2022/07/04 12:17:15;;;;;;;0.70;0.10;;;30.30;34.60;;;;;;5077079;28;20039;-54
2022/07/04 12:19:53;;;;;;;2.60;0.77;;;30.30;34.60;;;;;;5077168;28;20060;-54
2022/07/04 12:22:36;;;;;;;0.45;0.15;;;30.40;34.70;;;;;;5081654;28;20040;-56
2022/07/04 12:25:07;;;;;;;0.20;0.20;;;30.40;34.70;;;;;;5074739;28;20135;-56
2022/07/04 12:27:34;;;;;;;1.17;0.15;;;30.50;34.80;;;;;;5081299;28;20055;-54
2022/07/04 12:30:04;;;;;;;2.28;0.00;;;30.50;34.70;;;;;;5078351;28;20045;-55
2022/07/04 12:32:51;;;;;;;0.68;0.35;;;30.50;34.60;;;;;;5087107;28;20037;-54
2022/07/04 12:35:41;;;;;;;0.30;0.10;;;30.60;34.60;;;;;;5074504;28;20050;-56
2022/07/04 12:38:11;;;;;;;1.88;0.20;;;30.60;34.50;;;;;;5079715;28;20044;-53
2022/07/04 12:40:54;;;;;;;0.10;0.00;;;30.60;34.50;;;;;;5082851;28;20807;-56
2022/07/04 12:43:22;;;;;;;0.60;0.10;;;30.70;34.40;;;;;;5085323;28;20064;-54
2022/07/04 12:45:53;;;;;;;0.85;0.10;;;30.70;34.30;;;;;;5076995;28;20899;-56
2022/07/04 12:48:24;;;;;;;0.10;0.00;;;30.70;34.20;;;;;;5078663;28;20036;-53
2022/07/04 12:50:53;;;;;;;0.28;0.10;;;30.80;34.20;;;;;;5079162;28;20036;-57
2022/07/04 12:53:22;;;;;;;2.13;0.13;;;30.80;34.10;;;;;;5077812;28;20833;-57
2022/07/04 12:55:51;;;;;;;2.83;0.05;;;30.90;34.00;;;;;;5076917;28;20048;-54
2022/07/04 12:58:18;;;;;;;0.68;0.10;;;30.90;34.00;;;;;;5076494;28;20560;-61
2022/07/04 13:00:45;;;;;;;0.10;0.10;;;31.00;33.90;;;;;;5087382;28;20170;-61
2022/07/04 13:03:13;;;;;;;0.30;0.00;;;31.00;34.00;;;;;;5083852;28;20097;-63
2022/07/04 13:05:40;;;;;;;0.10;0.00;;;31.10;34.00;;;;;;5084022;28;20381;-64
2022/07/04 13:08:07;;;;;;;0.30;0.10;;;31.10;34.00;;;;;;5089669;28;20557;-70
2022/07/04 13:10:36;;;;;;;0.10;0.00;;;31.20;34.00;;;;;;5092211;28;20067;-71
2022/07/04 13:13:04;;;;;;;1.33;0.10;;;31.20;33.90;;;;;;5091357;28;20036;-65
2022/07/04 13:15:32;;;;;;;2.35;0.10;;;31.30;33.90;;;;;;5094855;28;20082;-67